Terminal Aerodrome Forecast
Issued by NWS Milwaukee/Sullivan, WI

Home | Current Version | Previous Version | Text Only | Print | Product List | Glossary On
Versions: 1 2 3 4 5 6 7 8 9 10 11 12 13 14 15 16 17 18 19 20 21 22 23 24 25 26 27 28 29 30 31 32 33 34 35 36 37 38 39 40 41 42 43 44 45 46 47 48 49
000
FTUS43 KMKX 230520
TAFMSN
TAF
KMSN 230520Z 2306/2406 15006KT P6SM BKN250
      TEMPO 2310/2312 SCT050 BKN080
     FM231200 18007KT P6SM SCT050 BKN080
     FM231400 18008KT P6SM VCSH BKN050
      TEMPO 2314/2317 -SHRA BKN035
     FM231700 19009KT P6SM -SHRA SCT025 OVC035
     FM232000 20008KT P6SM OVC030
     FM240100 21005KT 5SM BR OVC012=

USA.gov is the U.S. government's official web portal to all federal, state and local government web resources and services.